createdAt,value
2023-03-08T00:02:26.335Z,6.80
2023-03-08T00:04:57.199Z,4.30
2023-03-08T00:07:24.641Z,10.80
2023-03-08T00:09:52.256Z,6.18
2023-03-08T00:12:20.197Z,3.75
2023-03-08T00:14:47.635Z,4.28
2023-03-08T00:17:15.166Z,6.65
2023-03-08T00:19:42.612Z,9.63
2023-03-08T00:22:10.261Z,9.70
2023-03-08T00:24:37.791Z,4.22
2023-03-08T00:27:05.344Z,10.77
2023-03-08T00:29:32.764Z,3.65
2023-03-08T00:32:00.138Z,5.28
2023-03-08T00:34:27.541Z,4.72
2023-03-08T00:36:54.924Z,7.78
2023-03-08T00:39:22.363Z,4.60
2023-03-08T00:41:49.852Z,7.85
2023-03-08T00:44:17.292Z,7.63
2023-03-08T00:46:44.861Z,5.95
2023-03-08T00:49:14.068Z,4.88
2023-03-08T00:51:41.438Z,5.78
2023-03-08T00:54:08.954Z,3.85
2023-03-08T00:56:36.356Z,4.15
2023-03-08T00:59:03.785Z,5.32
2023-03-08T01:01:31.253Z,4.88
2023-03-08T01:03:59.445Z,5.95
2023-03-08T01:06:27.061Z,4.97
2023-03-08T01:08:54.532Z,4.32
2023-03-08T01:11:23.607Z,3.22
2023-03-08T01:13:51.363Z,4.35
2023-03-08T01:16:20.728Z,6.38
2023-03-08T01:18:48.242Z,3.47
2023-03-08T01:21:15.862Z,5.07
2023-03-08T01:23:43.457Z,3.40
2023-03-08T01:26:12.866Z,3.13
2023-03-08T01:28:40.502Z,1.70
2023-03-08T01:31:09.257Z,2.97
2023-03-08T01:33:36.645Z,3.08
2023-03-08T01:36:05.208Z,3.13
2023-03-08T01:38:32.707Z,3.63
2023-03-08T01:41:00.982Z,7.53
2023-03-08T01:43:32.074Z,3.97
2023-03-08T01:46:19.312Z,3.50
2023-03-08T01:48:53.820Z,3.60
2023-03-08T01:51:25.317Z,4.35
2023-03-08T01:53:53.472Z,4.50
2023-03-08T01:56:21.620Z,5.18
2023-03-08T01:58:50.071Z,8.75
2023-03-08T02:01:18.707Z,3.22
2023-03-08T02:03:47.177Z,5.15
2023-03-08T02:06:15.807Z,2.97
2023-03-08T02:08:43.536Z,20.30
2023-03-08T02:11:11.320Z,14.57
2023-03-08T02:13:39.968Z,5.50
2023-03-08T02:16:09.160Z,4.68
2023-03-08T02:18:36.544Z,4.82
2023-03-08T02:21:03.989Z,8.07
2023-03-08T02:23:31.434Z,6.68
2023-03-08T02:26:01.544Z,4.63
2023-03-08T02:28:29.612Z,4.10
2023-03-08T02:30:57.234Z,8.73
2023-03-08T02:33:24.965Z,2.50
2023-03-08T02:35:52.560Z,4.07
2023-03-08T02:38:20.504Z,7.35
2023-03-08T02:40:51.521Z,5.22
2023-03-08T02:43:19.385Z,7.20
2023-03-08T02:45:47.075Z,6.78
2023-03-08T02:48:15.305Z,5.03
2023-03-08T02:50:42.713Z,2.47
2023-03-08T02:53:10.338Z,5.78
2023-03-08T02:55:38.165Z,7.32
2023-03-08T02:58:06.130Z,8.85
2023-03-08T03:00:33.660Z,6.95
2023-03-08T03:03:01.106Z,8.63
2023-03-08T03:05:28.501Z,10.30
2023-03-08T03:07:58.691Z,7.45
2023-03-08T03:10:26.411Z,7.68
2023-03-08T03:12:53.808Z,3.15
2023-03-08T03:15:21.492Z,5.10
2023-03-08T03:17:48.915Z,2.55
2023-03-08T03:20:16.701Z,3.45
2023-03-08T03:22:44.930Z,5.45
2023-03-08T03:25:12.364Z,4.93
2023-03-08T03:27:40.047Z,2.95
2023-03-08T03:30:08.311Z,6.80
2023-03-08T03:32:35.809Z,5.32
2023-03-08T03:35:03.356Z,12.23
2023-03-08T03:37:30.803Z,8.57
2023-03-08T03:39:58.273Z,9.10
2023-03-08T03:42:25.662Z,6.22
2023-03-08T03:44:53.115Z,10.25
2023-03-08T03:47:20.519Z,7.82
2023-03-08T03:49:47.971Z,10.32
2023-03-08T03:52:15.441Z,3.08
2023-03-08T03:54:42.910Z,5.82
2023-03-08T03:57:10.364Z,3.90
2023-03-08T03:59:37.841Z,4.05
2023-03-08T04:02:05.268Z,4.88
2023-03-08T04:04:32.650Z,8.25
2023-03-08T04:07:00.043Z,5.70
2023-03-08T04:09:27.471Z,6.07
2023-03-08T04:11:54.872Z,8.68
2023-03-08T04:14:22.305Z,4.93
2023-03-08T04:16:49.740Z,5.55
2023-03-08T04:19:17.205Z,4.38
2023-03-08T04:21:44.670Z,4.78
2023-03-08T04:24:12.026Z,3.92
2023-03-08T04:26:39.491Z,6.05
2023-03-08T04:29:06.946Z,8.80
2023-03-08T04:31:35.153Z,9.32
2023-03-08T04:34:02.991Z,6.20
2023-03-08T04:36:30.572Z,9.85
2023-03-08T04:38:58.229Z,4.00
2023-03-08T04:41:25.683Z,10.48
2023-03-08T04:43:53.959Z,4.82
2023-03-08T04:46:22.759Z,5.43
2023-03-08T04:48:52.997Z,6.30
2023-03-08T04:51:20.750Z,4.28
2023-03-08T04:53:48.236Z,8.52
2023-03-08T04:56:16.353Z,4.90
2023-03-08T04:58:43.936Z,5.40
2023-03-08T05:01:31.171Z,4.97
2023-03-08T05:03:58.585Z,4.30
2023-03-08T05:06:27.174Z,6.20
2023-03-08T05:08:55.422Z,4.35
2023-03-08T05:11:24.720Z,5.80
2023-03-08T05:13:53.882Z,9.85
2023-03-08T05:16:21.492Z,5.30
2023-03-08T05:18:49.188Z,7.15
2023-03-08T05:21:18.533Z,4.60
2023-03-08T05:23:46.284Z,7.25
2023-03-08T05:26:15.887Z,4.00
2023-03-08T05:28:43.439Z,8.65
2023-03-08T05:31:15.618Z,5.45
2023-03-08T05:33:43.846Z,4.15
2023-03-08T05:36:11.843Z,5.20
2023-03-08T05:38:39.392Z,5.75
2023-03-08T05:41:08.446Z,9.07
2023-03-08T05:43:36.159Z,9.00
2023-03-08T05:46:06.445Z,14.75
2023-03-08T05:48:34.579Z,10.70
2023-03-08T05:51:10.240Z,7.63
2023-03-08T05:53:37.763Z,6.90
2023-03-08T05:56:09.765Z,3.80
2023-03-08T05:58:37.705Z,8.30
2023-03-08T06:01:13.481Z,6.82
2023-03-08T06:03:41.017Z,7.70
2023-03-08T06:06:08.566Z,5.53
2023-03-08T06:08:36.346Z,7.93
2023-03-08T06:11:03.943Z,6.90
2023-03-08T06:13:31.490Z,8.23
2023-03-08T06:15:59.588Z,5.63
2023-03-08T06:18:27.289Z,6.60
2023-03-08T06:21:14.568Z,7.18
2023-03-08T06:23:42.238Z,8.65
2023-03-08T06:26:10.228Z,6.82
2023-03-08T06:28:37.884Z,4.28
2023-03-08T06:31:05.482Z,7.72
2023-03-08T06:33:33.916Z,8.15
2023-03-08T06:36:02.648Z,4.93
2023-03-08T06:38:31.776Z,6.03
2023-03-08T06:41:01.516Z,4.93
2023-03-08T06:43:29.307Z,3.03
2023-03-08T06:45:56.939Z,4.30
2023-03-08T06:48:24.407Z,6.57
2023-03-08T06:50:51.821Z,9.13
2023-03-08T06:53:19.262Z,7.07
2023-03-08T06:55:46.741Z,5.90
2023-03-08T06:58:14.156Z,5.03
2023-03-08T07:00:41.574Z,5.40
2023-03-08T07:03:08.974Z,8.15
2023-03-08T07:05:36.481Z,10.55
2023-03-08T07:08:03.952Z,3.53
2023-03-08T07:10:31.731Z,4.80
2023-03-08T07:12:59.402Z,5.45
2023-03-08T07:15:27.138Z,6.07
2023-03-08T07:17:55.947Z,3.35
2023-03-08T07:20:24.504Z,9.40
2023-03-08T07:22:52.219Z,5.75
2023-03-08T07:25:20.670Z,7.68
2023-03-08T07:27:48.346Z,5.00
2023-03-08T07:30:16.203Z,5.05
2023-03-08T07:32:44.049Z,4.57
2023-03-08T07:35:12.666Z,9.27
2023-03-08T07:37:40.034Z,3.00
2023-03-08T07:40:08.251Z,7.22
2023-03-08T07:42:35.697Z,5.00
2023-03-08T07:45:03.933Z,6.00
2023-03-08T07:47:31.542Z,6.10
2023-03-08T07:49:59.589Z,8.90
2023-03-08T07:52:29.572Z,7.20
2023-03-08T07:54:57.182Z,11.27
2023-03-08T07:57:24.635Z,6.70
2023-03-08T07:59:53.553Z,4.50
2023-03-08T08:02:22.516Z,7.88
2023-03-08T08:04:50.818Z,7.05
2023-03-08T08:07:18.389Z,6.40
2023-03-08T08:09:45.802Z,10.20
2023-03-08T08:12:14.181Z,12.52
2023-03-08T08:14:41.668Z,12.48
2023-03-08T08:17:09.072Z,6.07
2023-03-08T08:19:36.525Z,9.98
2023-03-08T08:22:04.035Z,12.23
2023-03-08T08:24:32.980Z,6.40
2023-03-08T08:27:00.497Z,4.90
2023-03-08T08:29:28.976Z,3.17
2023-03-08T08:31:57.068Z,3.60
2023-03-08T08:34:25.122Z,2.80
2023-03-08T08:36:52.457Z,4.22
2023-03-08T08:39:19.815Z,12.15
2023-03-08T08:41:47.165Z,8.00
2023-03-08T08:44:14.570Z,9.70
2023-03-08T08:46:42.139Z,4.35
2023-03-08T08:49:10.875Z,5.28
2023-03-08T08:51:38.253Z,3.22
2023-03-08T08:54:05.735Z,6.38
2023-03-08T08:56:33.075Z,11.85
2023-03-08T08:59:01.595Z,4.47
2023-03-08T09:01:31.784Z,7.13
2023-03-08T09:03:59.658Z,4.75
2023-03-08T09:06:27.530Z,6.53
2023-03-08T09:08:56.429Z,4.03
2023-03-08T09:11:24.784Z,8.77
2023-03-08T09:13:52.501Z,3.80
2023-03-08T09:16:28.629Z,6.78
2023-03-08T09:18:56.967Z,6.72
2023-03-08T09:21:25.921Z,3.65
2023-03-08T09:23:53.260Z,6.55
2023-03-08T09:26:20.764Z,7.50
2023-03-08T09:28:48.134Z,5.60
2023-03-08T09:31:17.505Z,5.85
2023-03-08T09:33:48.384Z,3.03
2023-03-08T09:36:16.666Z,22.30
2023-03-08T09:38:44.065Z,8.02
2023-03-08T09:41:31.258Z,5.38
2023-03-08T09:44:18.888Z,5.18
2023-03-08T09:46:50.085Z,4.45
2023-03-08T09:49:21.213Z,9.00
2023-03-08T09:51:50.045Z,3.85
2023-03-08T09:54:20.457Z,4.38
2023-03-08T09:56:49.297Z,4.80
2023-03-08T09:59:41.000Z,4.78
2023-03-08T10:02:28.220Z,1.48
2023-03-08T10:05:15.574Z,4.13
2023-03-08T10:08:03.044Z,2.97
2023-03-08T10:10:50.276Z,5.93
2023-03-08T10:13:35.185Z,6.70
2023-03-08T10:16:24.532Z,3.40
2023-03-08T10:19:11.788Z,3.67
2023-03-08T10:21:41.367Z,5.70
2023-03-08T10:24:28.583Z,2.53
2023-03-08T10:27:00.488Z,4.37
2023-03-08T10:29:27.885Z,3.23
2023-03-08T10:31:55.284Z,3.80
2023-03-08T10:34:25.204Z,4.53
2023-03-08T10:36:54.048Z,3.93
2023-03-08T10:39:22.134Z,5.80
2023-03-08T10:41:52.239Z,2.67
2023-03-08T10:44:31.181Z,3.43
2023-03-08T10:46:58.613Z,4.73
2023-03-08T10:49:28.062Z,2.60
2023-03-08T10:51:57.689Z,3.90
2023-03-08T10:54:25.465Z,3.40
2023-03-08T10:56:54.302Z,6.43
2023-03-08T10:59:32.257Z,3.47
2023-03-08T11:02:01.303Z,3.60
2023-03-08T11:04:30.292Z,4.87
2023-03-08T11:06:58.924Z,7.37
2023-03-08T11:09:31.199Z,4.73
2023-03-08T11:11:59.352Z,6.07
2023-03-08T11:14:27.564Z,5.23
2023-03-08T11:17:15.391Z,4.50
2023-03-08T11:19:49.516Z,5.30
2023-03-08T11:22:22.135Z,3.93
2023-03-08T11:25:09.380Z,7.80
2023-03-08T11:27:56.747Z,4.53
2023-03-08T11:30:44.029Z,6.90
2023-03-08T11:33:31.869Z,2.17
2023-03-08T11:36:19.224Z,4.40
2023-03-08T11:38:49.160Z,4.33
2023-03-08T11:41:36.380Z,2.97
2023-03-08T11:44:23.705Z,7.13
2023-03-08T11:47:11.002Z,5.60
2023-03-08T11:49:59.359Z,3.20
2023-03-08T11:52:46.694Z,3.87
2023-03-08T11:55:25.137Z,5.17
2023-03-08T11:57:55.585Z,4.27
2023-03-08T12:00:29.084Z,4.07
2023-03-08T12:02:58.242Z,4.73
2023-03-08T12:05:30.807Z,4.13
2023-03-08T12:08:01.113Z,2.97
2023-03-08T12:10:37.327Z,3.40
2023-03-08T12:13:14.998Z,3.63
2023-03-08T12:15:48.165Z,3.20
2023-03-08T12:18:26.156Z,3.10
2023-03-08T12:20:57.213Z,4.13
2023-03-08T12:23:29.641Z,3.97
2023-03-08T12:26:16.840Z,3.47
2023-03-08T12:28:46.154Z,4.20
2023-03-08T12:31:33.521Z,6.20
2023-03-08T12:34:01.141Z,2.67
2023-03-08T12:36:44.843Z,3.13
2023-03-08T12:39:29.808Z,3.93
2023-03-08T12:41:58.201Z,2.45
2023-03-08T12:44:28.077Z,2.73
2023-03-08T12:47:03.497Z,2.13
2023-03-08T12:49:33.214Z,2.73
2023-03-08T12:52:02.750Z,4.63
2023-03-08T12:54:32.268Z,6.70
2023-03-08T12:56:59.889Z,5.25
2023-03-08T12:59:43.089Z,6.60
2023-03-08T13:02:31.170Z,8.00
2023-03-08T13:05:02.642Z,13.75
2023-03-08T13:07:35.216Z,7.90
2023-03-08T13:10:09.451Z,6.80
2023-03-08T13:12:41.068Z,5.35
2023-03-08T13:15:25.082Z,5.13
2023-03-08T13:18:12.327Z,3.72
2023-03-08T13:20:59.544Z,4.70
2023-03-08T13:23:46.881Z,7.85
2023-03-08T13:26:49.453Z,3.72
2023-03-08T13:29:19.458Z,3.70
2023-03-08T13:31:47.952Z,5.88
2023-03-08T13:34:24.450Z,6.97
2023-03-08T13:36:51.892Z,6.60
2023-03-08T13:39:21.943Z,5.97
2023-03-08T13:41:49.816Z,6.30
2023-03-08T13:44:37.077Z,5.25
2023-03-08T13:47:14.330Z,6.43
2023-03-08T13:49:43.624Z,4.90
2023-03-08T13:52:17.936Z,4.38
2023-03-08T13:54:48.069Z,9.55
2023-03-08T13:57:20.775Z,3.83
2023-03-08T13:59:49.562Z,5.78
2023-03-08T14:02:20.514Z,8.65
2023-03-08T14:04:47.929Z,7.05
2023-03-08T14:07:21.078Z,10.18
2023-03-08T14:09:48.503Z,6.18
2023-03-08T14:12:18.715Z,5.93
2023-03-08T14:14:48.582Z,4.10
2023-03-08T14:17:20.828Z,4.53
2023-03-08T14:19:53.095Z,8.48
2023-03-08T14:22:36.090Z,6.90
2023-03-08T14:25:06.442Z,7.70
2023-03-08T14:27:39.352Z,5.13
2023-03-08T14:30:26.604Z,4.57
2023-03-08T14:32:57.214Z,4.78
2023-03-08T14:35:26.048Z,5.03
2023-03-08T14:37:56.982Z,5.80
2023-03-08T14:40:26.883Z,4.95
2023-03-08T14:42:56.648Z,6.53
2023-03-08T14:45:28.915Z,4.70
2023-03-08T14:47:58.559Z,6.55
2023-03-08T14:50:45.741Z,5.80
2023-03-08T14:53:24.162Z,8.98
2023-03-08T14:55:51.576Z,5.88
2023-03-08T14:58:18.896Z,8.20
2023-03-08T15:00:50.857Z,14.82
2023-03-08T15:03:18.267Z,12.32
2023-03-08T15:05:46.792Z,18.23
2023-03-08T15:08:14.944Z,14.02
2023-03-08T15:10:42.701Z,9.45
2023-03-08T15:13:18.853Z,6.75
2023-03-08T15:15:46.281Z,11.85
2023-03-08T15:18:13.945Z,8.38
2023-03-08T15:20:45.807Z,7.68
2023-03-08T15:23:17.085Z,7.72
2023-03-08T15:25:44.401Z,8.20
2023-03-08T15:28:14.559Z,6.85
2023-03-08T15:30:42.294Z,12.07
2023-03-08T15:33:09.979Z,7.97
2023-03-08T15:35:38.440Z,10.52
2023-03-08T15:38:06.245Z,17.27
2023-03-08T15:40:34.478Z,23.02
2023-03-08T15:43:02.340Z,19.90
2023-03-08T15:45:29.756Z,20.63
2023-03-08T15:47:58.250Z,12.57
2023-03-08T15:50:25.761Z,12.05
2023-03-08T15:52:54.613Z,8.32
2023-03-08T15:55:22.777Z,10.18
2023-03-08T15:57:50.472Z,11.55
2023-03-08T16:00:18.731Z,12.80
2023-03-08T16:02:46.379Z,8.55
2023-03-08T16:05:14.301Z,7.38
2023-03-08T16:07:41.680Z,7.32
2023-03-08T16:10:11.090Z,7.25
2023-03-08T16:12:38.493Z,7.30
2023-03-08T16:15:06.356Z,8.15
2023-03-08T16:17:33.724Z,9.05
2023-03-08T16:20:01.130Z,8.57
2023-03-08T16:22:29.049Z,9.80
2023-03-08T16:24:56.737Z,9.20
2023-03-08T16:27:24.184Z,6.60
2023-03-08T16:29:52.537Z,11.10
2023-03-08T16:32:20.281Z,10.80
2023-03-08T16:34:50.951Z,14.57
2023-03-08T16:37:19.400Z,22.38
2023-03-08T16:39:47.146Z,14.10
2023-03-08T16:42:14.792Z,15.77
2023-03-08T16:44:42.443Z,27.42
2023-03-08T16:50:34.805Z,15.07
2023-03-08T16:53:02.227Z,10.15
2023-03-08T16:55:29.616Z,10.02
2023-03-08T16:57:57.016Z,9.73
2023-03-08T17:00:24.645Z,10.20
2023-03-08T17:02:52.091Z,14.30
2023-03-08T17:05:19.560Z,10.02
2023-03-08T17:07:47.777Z,11.63
2023-03-08T17:10:15.184Z,13.88
2023-03-08T17:12:42.605Z,12.45
2023-03-08T17:29:04.494Z,18.40
2023-03-08T17:31:31.967Z,18.05
2023-03-08T17:33:59.412Z,24.42
2023-03-08T17:36:27.056Z,21.35
2023-03-08T17:38:55.512Z,20.30
2023-03-08T17:41:23.299Z,17.55
2023-03-08T17:43:50.754Z,22.40
2023-03-08T17:46:19.614Z,23.83
2023-03-08T17:48:47.104Z,18.95
2023-03-08T17:51:15.398Z,24.60
2023-03-08T17:53:43.081Z,26.90
2023-03-08T17:56:11.923Z,26.83
2023-03-08T17:58:39.400Z,18.70
2023-03-08T18:01:09.491Z,19.52
2023-03-08T18:03:36.976Z,16.95
2023-03-08T18:06:04.787Z,17.20
2023-03-08T18:08:32.861Z,14.32
2023-03-08T18:11:00.648Z,15.05
2023-03-08T18:13:28.314Z,22.15
2023-03-08T18:15:55.716Z,22.17
2023-03-08T18:18:23.234Z,24.40
2023-03-08T18:20:50.613Z,33.05
2023-03-08T18:23:18.065Z,24.58
2023-03-08T18:25:45.455Z,17.08
2023-03-08T18:28:12.775Z,18.75
2023-03-08T18:30:40.154Z,17.80
2023-03-08T18:33:07.522Z,15.13
2023-03-08T18:35:34.969Z,12.75
2023-03-08T18:38:02.361Z,11.52
2023-03-08T18:40:29.816Z,7.35
2023-03-08T18:42:57.344Z,8.88
2023-03-08T18:45:24.687Z,12.05
2023-03-08T18:47:52.621Z,7.00
2023-03-08T18:50:20.233Z,11.07
2023-03-08T18:52:47.690Z,13.73
2023-03-08T18:55:15.241Z,14.88
2023-03-08T18:57:42.713Z,19.45
2023-03-08T19:00:11.996Z,10.18
2023-03-08T19:02:39.659Z,17.48
2023-03-08T19:05:07.338Z,32.78
2023-03-08T19:07:34.914Z,33.80
2023-03-08T19:10:03.701Z,41.45
2023-03-08T19:12:33.813Z,24.58
2023-03-08T19:15:07.427Z,21.08
2023-03-08T19:17:34.745Z,16.85
2023-03-08T19:20:02.177Z,23.70
2023-03-08T19:22:29.629Z,25.88
2023-03-08T19:24:57.079Z,25.45
2023-03-08T19:27:24.403Z,35.05
2023-03-08T19:29:51.740Z,37.85
2023-03-08T19:32:19.930Z,44.58
2023-03-08T19:34:48.517Z,42.15
2023-03-08T19:37:16.074Z,43.28
2023-03-08T19:39:43.786Z,46.17
2023-03-08T19:42:13.260Z,44.08
2023-03-08T19:44:40.598Z,56.65
2023-03-08T19:47:08.362Z,67.70
2023-03-08T19:49:38.025Z,68.32
2023-03-08T19:52:06.364Z,71.43
2023-03-08T19:54:34.147Z,49.13
2023-03-08T19:57:01.803Z,47.25
2023-03-08T19:59:29.258Z,58.80
2023-03-08T20:01:56.868Z,44.78
2023-03-08T20:04:24.948Z,47.05
2023-03-08T20:06:52.924Z,100.68
2023-03-08T20:09:21.819Z,233.60
2023-03-08T20:11:53.224Z,69.47
2023-03-08T20:14:20.878Z,52.70
2023-03-08T20:16:48.406Z,48.53
2023-03-08T20:19:17.740Z,42.72
2023-03-08T20:21:45.908Z,52.53
2023-03-08T20:24:13.634Z,75.72
2023-03-08T20:26:42.169Z,77.90
2023-03-08T20:29:09.670Z,67.30
2023-03-08T20:31:37.418Z,54.95
2023-03-08T20:34:05.004Z,67.13
2023-03-08T20:36:32.644Z,61.00
2023-03-08T20:39:03.759Z,55.92
2023-03-08T20:41:32.068Z,75.57
2023-03-08T20:44:00.439Z,73.88
2023-03-08T20:46:31.311Z,67.57
2023-03-08T20:48:59.140Z,64.43
2023-03-08T20:51:26.729Z,85.47
2023-03-08T20:53:54.850Z,88.57
2023-03-08T20:56:23.202Z,86.50
2023-03-08T20:58:54.515Z,75.82
2023-03-08T21:01:24.362Z,78.68
2023-03-08T21:03:51.993Z,59.05
2023-03-08T21:06:22.057Z,58.67
2023-03-08T21:08:50.094Z,57.08
2023-03-08T21:11:17.657Z,47.63
2023-03-08T21:13:46.136Z,43.10
2023-03-08T21:16:15.821Z,49.13
2023-03-08T21:18:46.161Z,64.40
2023-03-08T21:21:34.525Z,100.57
2023-03-08T21:24:03.282Z,95.00
2023-03-08T21:26:31.038Z,88.40
2023-03-08T21:29:02.134Z,88.75
2023-03-08T21:34:54.377Z,57.35
2023-03-08T21:37:21.823Z,72.50
2023-03-08T21:39:49.773Z,75.63
2023-03-08T21:42:17.490Z,70.22
2023-03-08T21:44:44.818Z,67.85
2023-03-08T21:47:12.567Z,71.75
2023-03-08T21:49:40.464Z,63.83
2023-03-08T21:52:07.820Z,61.58
2023-03-08T21:54:35.166Z,62.90
2023-03-08T21:57:02.744Z,57.35
2023-03-08T21:59:30.496Z,55.97
2023-03-08T22:01:58.929Z,74.93
2023-03-08T22:04:26.990Z,82.65
2023-03-08T22:06:55.787Z,80.32
2023-03-08T22:09:26.894Z,70.45
2023-03-08T22:11:54.476Z,67.65
2023-03-08T22:14:21.873Z,77.70
2023-03-08T22:16:49.244Z,60.35
2023-03-08T22:19:18.089Z,71.38
2023-03-08T22:21:45.478Z,77.80
2023-03-08T22:24:12.859Z,87.40
2023-03-08T22:26:40.206Z,86.85
2023-03-08T22:29:07.561Z,94.15
2023-03-08T22:31:34.919Z,88.30
2023-03-08T22:34:02.268Z,100.43
2023-03-08T22:36:29.808Z,105.05
2023-03-08T22:38:57.190Z,123.80
2023-03-08T22:41:25.883Z,110.10
2023-03-08T22:43:53.778Z,107.15
2023-03-08T22:46:23.254Z,110.28
2023-03-08T22:48:51.438Z,108.60
2023-03-08T22:51:19.547Z,132.68
2023-03-08T22:53:46.992Z,136.20
2023-03-08T22:56:20.024Z,139.15
2023-03-08T22:58:47.407Z,154.15
2023-03-08T23:01:15.883Z,157.60
2023-03-08T23:03:43.520Z,156.20
2023-03-08T23:06:11.166Z,143.75
2023-03-08T23:08:38.617Z,134.30
2023-03-08T23:11:06.897Z,147.30
2023-03-08T23:13:34.903Z,121.43
2023-03-08T23:16:02.312Z,113.57
2023-03-08T23:18:29.954Z,108.43
2023-03-08T23:20:57.400Z,100.22
2023-03-08T23:23:25.288Z,93.70
2023-03-08T23:25:52.789Z,90.55
2023-03-08T23:28:20.386Z,91.35
2023-03-08T23:30:47.741Z,102.28
2023-03-08T23:33:15.086Z,139.60
2023-03-08T23:35:42.754Z,141.98
2023-03-08T23:38:10.225Z,109.15
2023-03-08T23:40:40.088Z,101.60
2023-03-08T23:43:08.109Z,80.22
2023-03-08T23:45:35.504Z,78.82
2023-03-08T23:48:03.615Z,73.07
2023-03-08T23:50:31.166Z,73.90
2023-03-08T23:52:58.516Z,81.70
2023-03-08T23:55:25.951Z,82.82
2023-03-08T23:57:53.319Z,82.35
